Commodore Goodwill — C6NU8 — position and weather

sailwx.info

Track history (hours):
 
Tides and Currents Weather Stations Pressure Air Temp Water Temp Dewpoint Dewpoint Depression Visibility Wind Speed Wind Dir Waves Ship Positions

Commodore Goodwill

Operator: Condor Marine Services

Last reported at 2020-Jan-25 03:30 UTC. Time now 2020-Jan-25 04:34 UTC.
Position N 49°27' W 002°32'.

Length 126 m; draft 5 m.

Type: Ship (hazmat cat C). MMSI: 309536000.

Date/timePositionNaut miles runAvg speedWind from/ knotsBaromVisibWave heightAir tempDewpointWater temp
2020-Jan-25 03:30N 49°27' W 002°32'24 9.4
2020-Jan-25 01:00N 49°43' W 002°05'7015.7
2020-Jan-24 20:30N 50°41' W 001°03'612.9
2020-Jan-24 20:00N 50°47' W 001°07'1 3.0
2020-Jan-24 19:30N 50°49' W 001°06'2 0.6
2020-Jan-24 16:00N 50°47' W 001°06'1312.5
2020-Jan-24 15:00N 50°34' W 001°10'5415.9
2020-Jan-24 11:36N 49°50' W 001°57'914.5
2020-Jan-24 11:00N 49°43' W 002°05'815.2
2020-Jan-24 10:30N 49°38' W 002°14'816.7
2020-Jan-24 10:00N 49°33' W 002°24'10 3.9
2020-Jan-24 07:30N 49°23' W 002°27'816.3
2020-Jan-24 07:00N 49°16' W 002°22'7 1.9
2020-Jan-24 03:31N 49°10' W 002°18'1413.7
2020-Jan-24 02:30N 49°24' W 002°16'2914.4
2020-Jan-24 00:30N 49°50' W 001°58'1914.6
2020-Jan-23 23:12N 50°06' W 001°41'49 7.3
2020-Jan-23 16:30N 50°49' W 001°06'9 8.5
2020-Jan-23 15:31N 50°41' W 001°00'4614.1
2020-Jan-23 12:12N 50°03' W 001°42'1714.3
2020-Jan-23 11:00N 49°49' W 001°58'1515.2
2020-Jan-23 10:01N 49°35' W 002°08'25 6.0
2020-Jan-23 05:54N 49°11' W 002°07'410.5
2020-Jan-23 05:30N 49°10' W 002°13'10810.3
2020-Jan-22 19:00N 50°49' W 001°06'17 4.0
2020-Jan-22 14:47N 50°32' W 001°09'3016.1
2020-Jan-22 12:56N 50°08' W 001°36'2915.3
2020-Jan-22 11:00N 49°44' W 002°03'2412.2
2020-Jan-22 09:00N 49°27' W 002°31'0 0.8
2020-Jan-22 08:30N 49°27' W 002°32'23 5.1
2020-Jan-22 03:58N 49°11' W 002°07'4 8.1
2020-Jan-22 03:30N 49°10' W 002°13'4713.2
2020-Jan-22 00:00N 49°54' W 001°51'5616.1
2020-Jan-21 20:30N 50°41' W 001°03'43 5.7
2020-Jan-21 13:00N 50°05' W 001°38'2415.9
2020-Jan-21 11:30N 49°46' W 002°01'1514.7
2020-Jan-21 10:31N 49°33' W 002°11'17 5.8
2020-Jan-21 07:31N 49°18' W 002°23'918.4
2020-Jan-21 07:01N 49°10' W 002°16'6 1.9
2020-Jan-21 03:58N 49°11' W 002°07'4 8.8
2020-Jan-21 03:30N 49°10' W 002°13'612.4
2020-Jan-21 03:00N 49°14' W 002°20'1912.4
2020-Jan-21 01:30N 49°31' W 002°11'815.3
2020-Jan-21 01:00N 49°39' W 002°07'7017.1
2020-Jan-20 20:56N 50°36' W 001°05'13 5.3
2020-Jan-20 18:30N 50°49' W 001°06'0 0.0
2020-Jan-20 17:01N 50°49' W 001°06'20 9.0
2020-Jan-20 14:48N 50°30' W 001°15'5118.4
2020-Jan-20 12:00N 49°47' W 001°60'1616.4
2020-Jan-20 11:00N 49°33' W 002°12'14 9.2
2020-Jan-20 09:30N 49°27' W 002°32'0 0.0
2020-Jan-20 09:00N 49°27' W 002°32'2311.7
2020-Jan-20 07:00N 49°10' W 002°07'0 0.2
2020-Jan-20 06:00N 49°11' W 002°07'0 0.0
2020-Jan-20 05:29N 49°11' W 002°07'0 0.0
2020-Jan-20 04:59N 49°11' W 002°07'5 3.7
2020-Jan-20 03:30N 49°10' W 002°15'1111.4
2020-Jan-20 02:30N 49°21' W 002°18'1616.0
2020-Jan-20 01:30N 49°36' W 002°08'612.7
2020-Jan-20 01:00N 49°42' W 002°04'7212.1
2020-Jan-19 19:01N 50°43' W 001°03'612.5
2020-Jan-19 18:30N 50°48' W 001°07'1 0.4
2020-Jan-19 16:30N 50°49' W 001°06'7 1.9
2020-Jan-19 13:00N 50°42' W 001°03'0 0.0
2020-Jan-19 11:00N 50°42' W 001°03'0 0.0
2020-Jan-19 10:27N 50°42' W 001°03'0 0.1
2020-Jan-19 10:00N 50°42' W 001°03'7 4.4
2020-Jan-19 08:30N 50°49' W 001°06'0 0.0
2020-Jan-19 06:30N 50°49' W 001°06'7012.7
2020-Jan-19 01:00N 49°48' W 001°59'816.4
2020-Jan-19 00:31N 49°41' W 002°05'3112.5
2020-Jan-18 22:00N 49°10' W 002°16'612.0
2020-Jan-18 21:30N 49°11' W 002°07'0 0.0
2020-Jan-18 20:28N 49°11' W 002°07'7 6.9
2020-Jan-18 19:30N 49°05' W 002°01'6 3.8
2020-Jan-18 18:00N 49°01' W 001°55'3 5.7
2020-Jan-18 17:27N 48°58' W 001°56'6 6.0
2020-Jan-18 16:27N 48°52' W 001°59'11 7.3
2020-Jan-18 14:58N 48°43' W 002°06'26 5.8
2020-Jan-18 10:31N 49°08' W 002°05'3 3.1
2020-Jan-18 09:40N 49°11' W 002°07'17 5.3
2020-Jan-18 06:31N 49°21' W 002°26'713.9
2020-Jan-18 06:00N 49°27' W 002°32'9 4.5
2020-Jan-18 04:00N 49°30' W 002°19'9211.5
2020-Jan-17 20:00N 50°49' W 001°06'0 0.0
2020-Jan-17 18:30N 50°49' W 001°06'2 1.8
2020-Jan-17 17:30N 50°47' W 001°06'1814.6
2020-Jan-17 16:17N 50°30' W 001°15'2918.3
2020-Jan-17 14:42N 50°06' W 001°40'6018.8
2020-Jan-17 11:30N 49°11' W 002°17'2 0.7
2020-Jan-17 08:30N 49°10' W 002°15'2013.6
2020-Jan-17 07:01N 49°27' W 002°31'10 5.0
2020-Jan-17 05:00N 49°31' W 002°17'815.7
2020-Jan-17 04:30N 49°37' W 002°09'1020.0
2020-Jan-17 04:01N 49°46' W 002°01'5915.2
2020-Jan-17 00:07N 50°35' W 001°09'68 6.8
2020-Jan-16 14:00N 49°38' W 002°07'2019.5
2020-Jan-16 13:00N 49°20' W 002°19'917.9
2020-Jan-16 12:30N 49°11' W 002°18'713.5
2020-Jan-16 11:58N 49°11' W 002°07'0 0.0
2020-Jan-16 10:59N 49°11' W 002°07'0 0.1
2020-Jan-16 09:30N 49°11' W 002°07'1111.4
2020-Jan-16 08:31N 49°19' W 002°19'9417.1
2020-Jan-16 02:59N 50°40' W 001°04'714.7
2020-Jan-16 02:30N 50°47' W 001°06'2 1.9
2020-Jan-16 01:30N 50°49' W 001°06'0 0.0
2020-Jan-15 23:31N 50°49' W 001°06'1 0.7
2020-Jan-15 22:31N 50°49' W 001°07'6815.2
2020-Jan-15 18:01N 49°49' W 001°58'30 7.6
2020-Jan-15 14:01N 49°27' W 002°32'0 0.0
2020-Jan-15 12:31N 49°27' W 002°32'1211.7
2020-Jan-15 11:30N 49°32' W 002°15'8913.7
2020-Jan-15 05:00N 50°49' W 001°06'0 0.0
2020-Jan-15 03:30N 50°49' W 001°06'  
Track history (hours):
 
Tides and Currents Weather Stations Pressure Air Temp Water Temp Dewpoint Dewpoint Depression Visibility Wind Speed Wind Dir Waves Ship Positions

Commodore Goodwill

Operator: Condor Marine Services

Last reported at 2020-Jan-25 03:30 UTC. Time now 2020-Jan-25 04:34 UTC.
Position N 49°27' W 002°32'.

Length 126 m; draft 5 m.

Type: Ship (hazmat cat C). MMSI: 309536000.

Date/timePositionNaut miles runAvg speedWind from/ knotsBaromVisibWave heightAir tempDewpointWater temp
2020-Jan-25 03:30N 49°27' W 002°32'24 9.4
2020-Jan-25 01:00N 49°43' W 002°05'7015.7
2020-Jan-24 20:30N 50°41' W 001°03'612.9
2020-Jan-24 20:00N 50°47' W 001°07'1 3.0
2020-Jan-24 19:30N 50°49' W 001°06'2 0.6
2020-Jan-24 16:00N 50°47' W 001°06'1312.5
2020-Jan-24 15:00N 50°34' W 001°10'5415.9
2020-Jan-24 11:36N 49°50' W 001°57'914.5
2020-Jan-24 11:00N 49°43' W 002°05'815.2
2020-Jan-24 10:30N 49°38' W 002°14'816.7
2020-Jan-24 10:00N 49°33' W 002°24'10 3.9
2020-Jan-24 07:30N 49°23' W 002°27'816.3
2020-Jan-24 07:00N 49°16' W 002°22'7 1.9
2020-Jan-24 03:31N 49°10' W 002°18'1413.7
2020-Jan-24 02:30N 49°24' W 002°16'2914.4
2020-Jan-24 00:30N 49°50' W 001°58'1914.6
2020-Jan-23 23:12N 50°06' W 001°41'49 7.3
2020-Jan-23 16:30N 50°49' W 001°06'9 8.5
2020-Jan-23 15:31N 50°41' W 001°00'4614.1
2020-Jan-23 12:12N 50°03' W 001°42'1714.3
2020-Jan-23 11:00N 49°49' W 001°58'1515.2
2020-Jan-23 10:01N 49°35' W 002°08'25 6.0
2020-Jan-23 05:54N 49°11' W 002°07'410.5
2020-Jan-23 05:30N 49°10' W 002°13'10810.3
2020-Jan-22 19:00N 50°49' W 001°06'17 4.0
2020-Jan-22 14:47N 50°32' W 001°09'3016.1
2020-Jan-22 12:56N 50°08' W 001°36'2915.3
2020-Jan-22 11:00N 49°44' W 002°03'2412.2
2020-Jan-22 09:00N 49°27' W 002°31'0 0.8
2020-Jan-22 08:30N 49°27' W 002°32'23 5.1
2020-Jan-22 03:58N 49°11' W 002°07'4 8.1
2020-Jan-22 03:30N 49°10' W 002°13'4713.2
2020-Jan-22 00:00N 49°54' W 001°51'5616.1
2020-Jan-21 20:30N 50°41' W 001°03'43 5.7
2020-Jan-21 13:00N 50°05' W 001°38'2415.9
2020-Jan-21 11:30N 49°46' W 002°01'1514.7
2020-Jan-21 10:31N 49°33' W 002°11'17 5.8
2020-Jan-21 07:31N 49°18' W 002°23'918.4
2020-Jan-21 07:01N 49°10' W 002°16'6 1.9
2020-Jan-21 03:58N 49°11' W 002°07'4 8.8
2020-Jan-21 03:30N 49°10' W 002°13'612.4
2020-Jan-21 03:00N 49°14' W 002°20'1912.4
2020-Jan-21 01:30N 49°31' W 002°11'815.3
2020-Jan-21 01:00N 49°39' W 002°07'7017.1
2020-Jan-20 20:56N 50°36' W 001°05'13 5.3
2020-Jan-20 18:30N 50°49' W 001°06'0 0.0
2020-Jan-20 17:01N 50°49' W 001°06'20 9.0
2020-Jan-20 14:48N 50°30' W 001°15'5118.4
2020-Jan-20 12:00N 49°47' W 001°60'1616.4
2020-Jan-20 11:00N 49°33' W 002°12'14 9.2
2020-Jan-20 09:30N 49°27' W 002°32'0 0.0
2020-Jan-20 09:00N 49°27' W 002°32'2311.7
2020-Jan-20 07:00N 49°10' W 002°07'0 0.2
2020-Jan-20 06:00N 49°11' W 002°07'0 0.0
2020-Jan-20 05:29N 49°11' W 002°07'0 0.0
2020-Jan-20 04:59N 49°11' W 002°07'5 3.7
2020-Jan-20 03:30N 49°10' W 002°15'1111.4
2020-Jan-20 02:30N 49°21' W 002°18'1616.0
2020-Jan-20 01:30N 49°36' W 002°08'612.7
2020-Jan-20 01:00N 49°42' W 002°04'7212.1
2020-Jan-19 19:01N 50°43' W 001°03'612.5
2020-Jan-19 18:30N 50°48' W 001°07'1 0.4
2020-Jan-19 16:30N 50°49' W 001°06'7 1.9
2020-Jan-19 13:00N 50°42' W 001°03'0 0.0
2020-Jan-19 11:00N 50°42' W 001°03'0 0.0
2020-Jan-19 10:27N 50°42' W 001°03'0 0.1
2020-Jan-19 10:00N 50°42' W 001°03'7 4.4
2020-Jan-19 08:30N 50°49' W 001°06'0 0.0
2020-Jan-19 06:30N 50°49' W 001°06'7012.7
2020-Jan-19 01:00N 49°48' W 001°59'816.4
2020-Jan-19 00:31N 49°41' W 002°05'3112.5
2020-Jan-18 22:00N 49°10' W 002°16'612.0
2020-Jan-18 21:30N 49°11' W 002°07'0 0.0
2020-Jan-18 20:28N 49°11' W 002°07'7 6.9
2020-Jan-18 19:30N 49°05' W 002°01'6 3.8
2020-Jan-18 18:00N 49°01' W 001°55'3 5.7
2020-Jan-18 17:27N 48°58' W 001°56'6 6.0
2020-Jan-18 16:27N 48°52' W 001°59'11 7.3
2020-Jan-18 14:58N 48°43' W 002°06'26 5.8
2020-Jan-18 10:31N 49°08' W 002°05'3 3.1
2020-Jan-18 09:40N 49°11' W 002°07'17 5.3
2020-Jan-18 06:31N 49°21' W 002°26'713.9
2020-Jan-18 06:00N 49°27' W 002°32'9 4.5
2020-Jan-18 04:00N 49°30' W 002°19'9211.5
2020-Jan-17 20:00N 50°49' W 001°06'0 0.0
2020-Jan-17 18:30N 50°49' W 001°06'2 1.8
2020-Jan-17 17:30N 50°47' W 001°06'1814.6
2020-Jan-17 16:17N 50°30' W 001°15'2918.3
2020-Jan-17 14:42N 50°06' W 001°40'6018.8
2020-Jan-17 11:30N 49°11' W 002°17'2 0.7
2020-Jan-17 08:30N 49°10' W 002°15'2013.6
2020-Jan-17 07:01N 49°27' W 002°31'10 5.0
2020-Jan-17 05:00N 49°31' W 002°17'815.7
2020-Jan-17 04:30N 49°37' W 002°09'1020.0
2020-Jan-17 04:01N 49°46' W 002°01'5915.2
2020-Jan-17 00:07N 50°35' W 001°09'68 6.8
2020-Jan-16 14:00N 49°38' W 002°07'2019.5
2020-Jan-16 13:00N 49°20' W 002°19'917.9
2020-Jan-16 12:30N 49°11' W 002°18'713.5
2020-Jan-16 11:58N 49°11' W 002°07'0 0.0
2020-Jan-16 10:59N 49°11' W 002°07'0 0.1
2020-Jan-16 09:30N 49°11' W 002°07'1111.4
2020-Jan-16 08:31N 49°19' W 002°19'9417.1
2020-Jan-16 02:59N 50°40' W 001°04'714.7
2020-Jan-16 02:30N 50°47' W 001°06'2 1.9
2020-Jan-16 01:30N 50°49' W 001°06'0 0.0
2020-Jan-15 23:31N 50°49' W 001°06'1 0.7
2020-Jan-15 22:31N 50°49' W 001°07'6815.2
2020-Jan-15 18:01N 49°49' W 001°58'30 7.6
2020-Jan-15 14:01N 49°27' W 002°32'0 0.0
2020-Jan-15 12:31N 49°27' W 002°32'1211.7
2020-Jan-15 11:30N 49°32' W 002°15'8913.7
2020-Jan-15 05:00N 50°49' W 001°06'0 0.0
2020-Jan-15 03:30N 50°49' W 001°06'  

Dump ship's entire track history